sensor_id;sensor_type;location;lat;lon;timestamp;temperature;humidity
23160;DHT22;11748;50.844;4.396;2022-09-14T00:01:09;20.10;99.90
23160;DHT22;11748;50.844;4.396;2022-09-14T00:03:36;20.00;99.90
23160;DHT22;11748;50.844;4.396;2022-09-14T00:06:07;20.00;99.90
23160;DHT22;11748;50.844;4.396;2022-09-14T00:08:36;19.90;99.90
23160;DHT22;11748;50.844;4.396;2022-09-14T00:11:11;19.90;99.90
23160;DHT22;11748;50.844;4.396;2022-09-14T00:13:39;19.90;99.90
23160;DHT22;11748;50.844;4.396;2022-09-14T00:16:07;19.90;99.90
23160;DHT22;11748;50.844;4.396;2022-09-14T00:18:35;20.00;99.90
23160;DHT22;11748;50.844;4.396;2022-09-14T00:21:03;19.90;99.90
23160;DHT22;11748;50.844;4.396;2022-09-14T00:23:29;19.90;99.90
23160;DHT22;11748;50.844;4.396;2022-09-14T00:25:55;19.80;99.90
23160;DHT22;11748;50.844;4.396;2022-09-14T00:28:21;19.70;99.90
23160;DHT22;11748;50.844;4.396;2022-09-14T00:30:46;19.60;99.90
23160;DHT22;11748;50.844;4.396;2022-09-14T00:33:12;19.60;99.90
23160;DHT22;11748;50.844;4.396;2022-09-14T00:35:38;19.60;99.90
23160;DHT22;11748;50.844;4.396;2022-09-14T00:38:04;19.60;99.90
23160;DHT22;11748;50.844;4.396;2022-09-14T00:40:30;19.60;99.90
23160;DHT22;11748;50.844;4.396;2022-09-14T00:42:57;19.60;99.90
23160;DHT22;11748;50.844;4.396;2022-09-14T00:45:24;19.70;99.90
23160;DHT22;11748;50.844;4.396;2022-09-14T00:47:51;19.70;99.90
23160;DHT22;11748;50.844;4.396;2022-09-14T00:50:19;19.60;99.90
23160;DHT22;11748;50.844;4.396;2022-09-14T00:52:47;19.70;99.90
23160;DHT22;11748;50.844;4.396;2022-09-14T00:55:19;19.60;99.90
23160;DHT22;11748;50.844;4.396;2022-09-14T00:57:51;19.60;99.90
23160;DHT22;11748;50.844;4.396;2022-09-14T01:00:21;19.60;99.90
23160;DHT22;11748;50.844;4.396;2022-09-14T01:02:48;19.60;99.90
23160;DHT22;11748;50.844;4.396;2022-09-14T01:11:15;19.50;99.90
23160;DHT22;11748;50.844;4.396;2022-09-14T01:14:14;19.50;99.90
23160;DHT22;11748;50.844;4.396;2022-09-14T01:17:00;19.50;99.90
23160;DHT22;11748;50.844;4.396;2022-09-14T01:23:05;19.50;99.90
23160;DHT22;11748;50.844;4.396;2022-09-14T01:31:29;19.30;99.90
23160;DHT22;11748;50.844;4.396;2022-09-14T01:36:43;19.20;99.90
23160;DHT22;11748;50.844;4.396;2022-09-14T01:39:11;19.20;99.90
23160;DHT22;11748;50.844;4.396;2022-09-14T01:41:40;19.20;99.90
23160;DHT22;11748;50.844;4.396;2022-09-14T01:44:10;19.20;99.90
23160;DHT22;11748;50.844;4.396;2022-09-14T01:46:44;19.20;99.90
23160;DHT22;11748;50.844;4.396;2022-09-14T01:49:32;19.20;99.90
23160;DHT22;11748;50.844;4.396;2022-09-14T01:52:10;19.20;99.90
23160;DHT22;11748;50.844;4.396;2022-09-14T01:57:13;19.10;99.90
23160;DHT22;11748;50.844;4.396;2022-09-14T01:59:45;19.10;99.90
23160;DHT22;11748;50.844;4.396;2022-09-14T02:02:30;19.10;99.90
23160;DHT22;11748;50.844;4.396;2022-09-14T02:05:07;19.10;99.90
23160;DHT22;11748;50.844;4.396;2022-09-14T02:07:39;19.00;99.90
23160;DHT22;11748;50.844;4.396;2022-09-14T02:10:08;19.00;99.90
23160;DHT22;11748;50.844;4.396;2022-09-14T02:12:36;18.90;99.90
23160;DHT22;11748;50.844;4.396;2022-09-14T02:15:04;19.00;99.90
23160;DHT22;11748;50.844;4.396;2022-09-14T02:17:30;18.90;99.90
23160;DHT22;11748;50.844;4.396;2022-09-14T02:19:58;19.00;99.90
23160;DHT22;11748;50.844;4.396;2022-09-14T02:22:26;19.00;99.90
23160;DHT22;11748;50.844;4.396;2022-09-14T02:24:52;19.00;99.90
23160;DHT22;11748;50.844;4.396;2022-09-14T02:27:18;19.00;99.90
23160;DHT22;11748;50.844;4.396;2022-09-14T02:29:44;19.00;99.90
23160;DHT22;11748;50.844;4.396;2022-09-14T02:32:25;19.00;99.90
23160;DHT22;11748;50.844;4.396;2022-09-14T02:40:38;18.70;99.90
23160;DHT22;11748;50.844;4.396;2022-09-14T02:46:05;18.40;99.90
23160;DHT22;11748;50.844;4.396;2022-09-14T02:56:44;18.10;99.90
23160;DHT22;11748;50.844;4.396;2022-09-14T02:59:10;18.00;99.90
23160;DHT22;11748;50.844;4.396;2022-09-14T03:01:36;18.00;99.90
23160;DHT22;11748;50.844;4.396;2022-09-14T03:04:04;18.00;99.90
23160;DHT22;11748;50.844;4.396;2022-09-14T03:06:35;18.00;99.90
23160;DHT22;11748;50.844;4.396;2022-09-14T03:09:01;18.00;99.90
23160;DHT22;11748;50.844;4.396;2022-09-14T03:11:27;17.80;99.90
23160;DHT22;11748;50.844;4.396;2022-09-14T03:13:53;17.80;99.90
23160;DHT22;11748;50.844;4.396;2022-09-14T03:16:19;17.70;99.90
23160;DHT22;11748;50.844;4.396;2022-09-14T03:18:45;17.80;99.90
23160;DHT22;11748;50.844;4.396;2022-09-14T03:21:14;17.80;99.90
23160;DHT22;11748;50.844;4.396;2022-09-14T03:23:45;17.80;99.90
23160;DHT22;11748;50.844;4.396;2022-09-14T03:26:20;17.80;99.90
23160;DHT22;11748;50.844;4.396;2022-09-14T03:28:50;17.80;99.90
23160;DHT22;11748;50.844;4.396;2022-09-14T03:31:16;17.80;99.90
23160;DHT22;11748;50.844;4.396;2022-09-14T03:33:42;17.90;99.90
23160;DHT22;11748;50.844;4.396;2022-09-14T03:36:14;17.90;99.90
23160;DHT22;11748;50.844;4.396;2022-09-14T03:38:45;17.90;99.90
23160;DHT22;11748;50.844;4.396;2022-09-14T03:41:11;18.00;99.90
23160;DHT22;11748;50.844;4.396;2022-09-14T03:43:38;18.00;99.90
23160;DHT22;11748;50.844;4.396;2022-09-14T03:46:06;18.10;99.90
23160;DHT22;11748;50.844;4.396;2022-09-14T03:48:31;18.10;99.90
23160;DHT22;11748;50.844;4.396;2022-09-14T03:50:59;18.10;99.90
23160;DHT22;11748;50.844;4.396;2022-09-14T03:53:28;18.10;99.90
23160;DHT22;11748;50.844;4.396;2022-09-14T03:55:56;18.00;99.90
23160;DHT22;11748;50.844;4.396;2022-09-14T03:58:22;18.10;99.90
23160;DHT22;11748;50.844;4.396;2022-09-14T04:00:48;18.00;99.90
23160;DHT22;11748;50.844;4.396;2022-09-14T04:03:14;17.90;99.90
23160;DHT22;11748;50.844;4.396;2022-09-14T04:05:40;17.80;99.90
23160;DHT22;11748;50.844;4.396;2022-09-14T04:08:05;17.70;99.90
23160;DHT22;11748;50.844;4.396;2022-09-14T04:10:31;17.70;99.90
23160;DHT22;11748;50.844;4.396;2022-09-14T04:12:59;17.60;99.90
23160;DHT22;11748;50.844;4.396;2022-09-14T04:15:27;17.60;99.90
23160;DHT22;11748;50.844;4.396;2022-09-14T04:17:53;17.60;99.90
23160;DHT22;11748;50.844;4.396;2022-09-14T04:20:19;17.70;99.90
23160;DHT22;11748;50.844;4.396;2022-09-14T04:22:44;17.60;99.90
23160;DHT22;11748;50.844;4.396;2022-09-14T04:25:11;17.60;99.90
23160;DHT22;11748;50.844;4.396;2022-09-14T04:27:37;17.60;99.90
23160;DHT22;11748;50.844;4.396;2022-09-14T04:30:04;17.60;99.90
23160;DHT22;11748;50.844;4.396;2022-09-14T04:32:30;17.60;99.90
23160;DHT22;11748;50.844;4.396;2022-09-14T04:34:56;17.50;99.90
23160;DHT22;11748;50.844;4.396;2022-09-14T04:37:24;17.50;99.90
23160;DHT22;11748;50.844;4.396;2022-09-14T04:39:49;17.50;99.90
23160;DHT22;11748;50.844;4.396;2022-09-14T04:42:17;17.50;99.90
23160;DHT22;11748;50.844;4.396;2022-09-14T04:44:43;17.50;99.90
23160;DHT22;11748;50.844;4.396;2022-09-14T04:47:09;17.50;99.90
23160;DHT22;11748;50.844;4.396;2022-09-14T04:49:35;17.60;99.90
23160;DHT22;11748;50.844;4.396;2022-09-14T04:52:01;17.50;99.90
23160;DHT22;11748;50.844;4.396;2022-09-14T04:54:27;17.50;99.90
23160;DHT22;11748;50.844;4.396;2022-09-14T04:56:52;17.50;99.90
23160;DHT22;11748;50.844;4.396;2022-09-14T04:59:18;17.50;99.90
23160;DHT22;11748;50.844;4.396;2022-09-14T05:01:45;17.40;99.90
23160;DHT22;11748;50.844;4.396;2022-09-14T05:04:13;17.40;99.90
23160;DHT22;11748;50.844;4.396;2022-09-14T05:06:40;17.40;99.90
23160;DHT22;11748;50.844;4.396;2022-09-14T05:09:10;17.50;99.90
23160;DHT22;11748;50.844;4.396;2022-09-14T05:11:38;17.50;99.90
23160;DHT22;11748;50.844;4.396;2022-09-14T05:14:04;17.40;99.90
23160;DHT22;11748;50.844;4.396;2022-09-14T05:16:35;17.20;99.90
23160;DHT22;11748;50.844;4.396;2022-09-14T05:19:04;17.30;99.90
23160;DHT22;11748;50.844;4.396;2022-09-14T05:21:31;17.20;99.90
23160;DHT22;11748;50.844;4.396;2022-09-14T05:24:00;17.10;99.90
23160;DHT22;11748;50.844;4.396;2022-09-14T05:26:27;17.10;99.90
23160;DHT22;11748;50.844;4.396;2022-09-14T05:28:56;17.10;99.90
23160;DHT22;11748;50.844;4.396;2022-09-14T05:31:23;17.10;99.90
23160;DHT22;11748;50.844;4.396;2022-09-14T05:33:50;17.00;99.90
23160;DHT22;11748;50.844;4.396;2022-09-14T05:36:16;17.00;99.90
23160;DHT22;11748;50.844;4.396;2022-09-14T05:38:42;16.90;99.90
23160;DHT22;11748;50.844;4.396;2022-09-14T05:41:12;17.00;99.90
23160;DHT22;11748;50.844;4.396;2022-09-14T05:43:39;16.90;99.90
23160;DHT22;11748;50.844;4.396;2022-09-14T05:46:13;16.90;99.90
23160;DHT22;11748;50.844;4.396;2022-09-14T05:48:39;16.90;99.90
23160;DHT22;11748;50.844;4.396;2022-09-14T05:51:13;16.90;99.90
23160;DHT22;11748;50.844;4.396;2022-09-14T05:53:39;16.90;99.90
23160;DHT22;11748;50.844;4.396;2022-09-14T05:56:08;16.80;99.90
23160;DHT22;11748;50.844;4.396;2022-09-14T05:58:35;16.90;99.90
23160;DHT22;11748;50.844;4.396;2022-09-14T06:01:17;16.90;99.90
23160;DHT22;11748;50.844;4.396;2022-09-14T06:03:44;16.90;99.90
23160;DHT22;11748;50.844;4.396;2022-09-14T06:06:11;16.90;99.90
23160;DHT22;11748;50.844;4.396;2022-09-14T06:08:38;16.90;99.90
23160;DHT22;11748;50.844;4.396;2022-09-14T06:11:12;17.00;99.90
23160;DHT22;11748;50.844;4.396;2022-09-14T06:13:39;17.00;99.90
23160;DHT22;11748;50.844;4.396;2022-09-14T06:16:08;17.10;99.90
23160;DHT22;11748;50.844;4.396;2022-09-14T06:18:35;17.10;99.90
23160;DHT22;11748;50.844;4.396;2022-09-14T06:21:03;17.10;99.90
23160;DHT22;11748;50.844;4.396;2022-09-14T06:23:30;17.10;99.90
23160;DHT22;11748;50.844;4.396;2022-09-14T06:25:56;17.10;99.90
23160;DHT22;11748;50.844;4.396;2022-09-14T06:28:23;17.20;99.90
23160;DHT22;11748;50.844;4.396;2022-09-14T06:30:50;17.20;99.90
23160;DHT22;11748;50.844;4.396;2022-09-14T06:33:16;17.20;99.90
23160;DHT22;11748;50.844;4.396;2022-09-14T06:35:43;17.20;99.90
23160;DHT22;11748;50.844;4.396;2022-09-14T06:38:11;17.20;99.90
23160;DHT22;11748;50.844;4.396;2022-09-14T06:43:18;17.30;99.90
23160;DHT22;11748;50.844;4.396;2022-09-14T06:45:43;17.30;99.90
23160;DHT22;11748;50.844;4.396;2022-09-14T06:48:09;17.30;99.90
23160;DHT22;11748;50.844;4.396;2022-09-14T06:50:35;17.40;99.90
23160;DHT22;11748;50.844;4.396;2022-09-14T06:53:00;17.30;99.90
23160;DHT22;11748;50.844;4.396;2022-09-14T06:55:26;17.30;99.90
23160;DHT22;11748;50.844;4.396;2022-09-14T06:57:52;17.30;99.90
23160;DHT22;11748;50.844;4.396;2022-09-14T07:00:18;17.40;99.90
23160;DHT22;11748;50.844;4.396;2022-09-14T07:02:44;17.40;99.90
23160;DHT22;11748;50.844;4.396;2022-09-14T07:05:11;17.40;99.90
23160;DHT22;11748;50.844;4.396;2022-09-14T07:07:38;17.40;99.90
23160;DHT22;11748;50.844;4.396;2022-09-14T07:10:05;17.50;99.90
23160;DHT22;11748;50.844;4.396;2022-09-14T07:12:31;17.50;99.90
23160;DHT22;11748;50.844;4.396;2022-09-14T07:14:56;17.40;99.90
23160;DHT22;11748;50.844;4.396;2022-09-14T07:17:22;17.30;99.90
23160;DHT22;11748;50.844;4.396;2022-09-14T07:19:48;17.20;99.90
23160;DHT22;11748;50.844;4.396;2022-09-14T07:22:14;17.30;99.90
23160;DHT22;11748;50.844;4.396;2022-09-14T07:24:39;17.30;99.90
23160;DHT22;11748;50.844;4.396;2022-09-14T07:27:05;17.40;99.90
23160;DHT22;11748;50.844;4.396;2022-09-14T07:29:31;17.40;99.90
23160;DHT22;11748;50.844;4.396;2022-09-14T07:31:56;17.40;99.90
23160;DHT22;11748;50.844;4.396;2022-09-14T07:34:22;17.40;99.90
23160;DHT22;11748;50.844;4.396;2022-09-14T07:36:49;17.50;99.90
23160;DHT22;11748;50.844;4.396;2022-09-14T07:39:15;17.50;99.90
23160;DHT22;11748;50.844;4.396;2022-09-14T07:41:42;17.40;99.90
23160;DHT22;11748;50.844;4.396;2022-09-14T07:44:11;17.50;99.90
23160;DHT22;11748;50.844;4.396;2022-09-14T07:46:39;17.60;99.90
23160;DHT22;11748;50.844;4.396;2022-09-14T07:49:06;17.60;99.90
23160;DHT22;11748;50.844;4.396;2022-09-14T07:51:34;17.60;99.90
23160;DHT22;11748;50.844;4.396;2022-09-14T07:54:02;17.50;99.90
23160;DHT22;11748;50.844;4.396;2022-09-14T07:56:28;17.60;99.90
23160;DHT22;11748;50.844;4.396;2022-09-14T07:58:56;17.60;99.90
23160;DHT22;11748;50.844;4.396;2022-09-14T08:01:23;17.60;99.90
23160;DHT22;11748;50.844;4.396;2022-09-14T08:03:49;17.60;99.90
23160;DHT22;11748;50.844;4.396;2022-09-14T08:06:17;17.60;99.90
23160;DHT22;11748;50.844;4.396;2022-09-14T08:08:45;17.60;99.90
23160;DHT22;11748;50.844;4.396;2022-09-14T08:11:14;17.60;99.90
23160;DHT22;11748;50.844;4.396;2022-09-14T08:13:42;17.60;99.90
23160;DHT22;11748;50.844;4.396;2022-09-14T08:16:09;17.60;99.90
23160;DHT22;11748;50.844;4.396;2022-09-14T08:18:35;17.60;99.90
23160;DHT22;11748;50.844;4.396;2022-09-14T08:21:04;17.50;99.90
23160;DHT22;11748;50.844;4.396;2022-09-14T08:23:32;17.50;99.90
23160;DHT22;11748;50.844;4.396;2022-09-14T08:26:21;17.50;99.90
23160;DHT22;11748;50.844;4.396;2022-09-14T08:28:49;17.50;99.90
23160;DHT22;11748;50.844;4.396;2022-09-14T08:31:21;17.50;99.90
23160;DHT22;11748;50.844;4.396;2022-09-14T08:33:54;17.60;99.90
23160;DHT22;11748;50.844;4.396;2022-09-14T08:36:23;17.70;99.90
23160;DHT22;11748;50.844;4.396;2022-09-14T08:38:49;17.80;99.90
23160;DHT22;11748;50.844;4.396;2022-09-14T08:51:57;18.00;99.90
23160;DHT22;11748;50.844;4.396;2022-09-14T08:54:23;18.00;99.90
23160;DHT22;11748;50.844;4.396;2022-09-14T08:59:56;18.10;99.90
23160;DHT22;11748;50.844;4.396;2022-09-14T09:08:24;18.10;99.90
23160;DHT22;11748;50.844;4.396;2022-09-14T09:10:54;18.10;99.90
23160;DHT22;11748;50.844;4.396;2022-09-14T09:13:28;18.10;99.90
23160;DHT22;11748;50.844;4.396;2022-09-14T09:16:02;18.10;99.90
23160;DHT22;11748;50.844;4.396;2022-09-14T09:18:51;18.10;99.90
23160;DHT22;11748;50.844;4.396;2022-09-14T09:21:34;18.00;99.90
23160;DHT22;11748;50.844;4.396;2022-09-14T09:26:46;18.10;99.90
23160;DHT22;11748;50.844;4.396;2022-09-14T09:29:13;18.00;99.90
23160;DHT22;11748;50.844;4.396;2022-09-14T09:31:43;18.00;99.90
23160;DHT22;11748;50.844;4.396;2022-09-14T09:34:15;18.00;99.90
23160;DHT22;11748;50.844;4.396;2022-09-14T09:36:46;18.10;99.90
23160;DHT22;11748;50.844;4.396;2022-09-14T09:39:15;18.10;99.90
23160;DHT22;11748;50.844;4.396;2022-09-14T09:42:02;18.10;99.90
23160;DHT22;11748;50.844;4.396;2022-09-14T09:45:01;18.20;99.90
23160;DHT22;11748;50.844;4.396;2022-09-14T09:47:38;18.20;99.90
23160;DHT22;11748;50.844;4.396;2022-09-14T09:52:32;18.20;99.90
23160;DHT22;11748;50.844;4.396;2022-09-14T09:55:06;18.30;99.90
23160;DHT22;11748;50.844;4.396;2022-09-14T09:57:34;18.30;99.90
23160;DHT22;11748;50.844;4.396;2022-09-14T10:00:21;18.30;99.90
23160;DHT22;11748;50.844;4.396;2022-09-14T10:02:48;18.30;99.90
23160;DHT22;11748;50.844;4.396;2022-09-14T10:10:16;18.40;99.90
23160;DHT22;11748;50.844;4.396;2022-09-14T10:12:47;18.40;99.90
23160;DHT22;11748;50.844;4.396;2022-09-14T10:28:44;18.60;99.90
23160;DHT22;11748;50.844;4.396;2022-09-14T10:33:39;18.50;99.90
23160;DHT22;11748;50.844;4.396;2022-09-14T10:41:58;18.50;99.90
23160;DHT22;11748;50.844;4.396;2022-09-14T10:45:33;18.50;99.90
23160;DHT22;11748;50.844;4.396;2022-09-14T10:48:02;18.40;99.90
23160;DHT22;11748;50.844;4.396;2022-09-14T10:51:27;18.40;99.90
23160;DHT22;11748;50.844;4.396;2022-09-14T10:56:42;18.40;99.90
23160;DHT22;11748;50.844;4.396;2022-09-14T10:59:26;18.30;99.90
23160;DHT22;11748;50.844;4.396;2022-09-14T11:22:01;18.00;99.90
23160;DHT22;11748;50.844;4.396;2022-09-14T11:24:52;18.00;99.90
23160;DHT22;11748;50.844;4.396;2022-09-14T11:27:41;18.00;99.90
23160;DHT22;11748;50.844;4.396;2022-09-14T11:30:23;18.00;99.90
23160;DHT22;11748;50.844;4.396;2022-09-14T11:33:06;18.00;99.90
23160;DHT22;11748;50.844;4.396;2022-09-14T11:35:47;18.00;99.90
23160;DHT22;11748;50.844;4.396;2022-09-14T11:38:20;17.90;99.90
23160;DHT22;11748;50.844;4.396;2022-09-14T11:41:00;18.00;99.90
23160;DHT22;11748;50.844;4.396;2022-09-14T11:46:35;17.90;99.90
23160;DHT22;11748;50.844;4.396;2022-09-14T11:49:21;17.80;99.90
23160;DHT22;11748;50.844;4.396;2022-09-14T11:54:40;17.90;99.90
23160;DHT22;11748;50.844;4.396;2022-09-14T11:57:06;17.80;99.90
23160;DHT22;11748;50.844;4.396;2022-09-14T12:10:25;17.80;99.90
23160;DHT22;11748;50.844;4.396;2022-09-14T12:12:54;17.80;99.90
23160;DHT22;11748;50.844;4.396;2022-09-14T12:36:01;18.30;99.90
23160;DHT22;11748;50.844;4.396;2022-09-14T12:51:37;18.40;99.90
23160;DHT22;11748;50.844;4.396;2022-09-14T12:57:23;18.40;99.90
23160;DHT22;11748;50.844;4.396;2022-09-14T13:05:23;18.40;99.90
23160;DHT22;11748;50.844;4.396;2022-09-14T13:07:50;18.50;99.90
23160;DHT22;11748;50.844;4.396;2022-09-14T13:10:44;18.60;99.90
23160;DHT22;11748;50.844;4.396;2022-09-14T13:13:20;18.70;99.90
23160;DHT22;11748;50.844;4.396;2022-09-14T13:16:03;18.90;99.90
23160;DHT22;11748;50.844;4.396;2022-09-14T13:18:31;19.00;99.90
23160;DHT22;11748;50.844;4.396;2022-09-14T13:21:00;19.10;99.90
23160;DHT22;11748;50.844;4.396;2022-09-14T13:23:37;19.10;99.90
23160;DHT22;11748;50.844;4.396;2022-09-14T13:26:25;19.10;99.90
23160;DHT22;11748;50.844;4.396;2022-09-14T13:28:54;19.10;99.90
23160;DHT22;11748;50.844;4.396;2022-09-14T13:31:26;19.00;99.90
23160;DHT22;11748;50.844;4.396;2022-09-14T13:33:53;18.90;99.90
23160;DHT22;11748;50.844;4.396;2022-09-14T13:36:30;18.80;99.90
23160;DHT22;11748;50.844;4.396;2022-09-14T13:38:59;18.80;99.90
23160;DHT22;11748;50.844;4.396;2022-09-14T13:41:31;18.80;99.90
23160;DHT22;11748;50.844;4.396;2022-09-14T13:43:57;18.80;99.90
23160;DHT22;11748;50.844;4.396;2022-09-14T13:46:27;18.80;99.90
23160;DHT22;11748;50.844;4.396;2022-09-14T13:48:54;18.90;99.90
23160;DHT22;11748;50.844;4.396;2022-09-14T13:51:26;18.90;99.90
23160;DHT22;11748;50.844;4.396;2022-09-14T13:53:54;19.00;99.90
23160;DHT22;11748;50.844;4.396;2022-09-14T13:56:28;18.90;99.90
23160;DHT22;11748;50.844;4.396;2022-09-14T14:01:38;19.00;99.90
23160;DHT22;11748;50.844;4.396;2022-09-14T14:04:05;19.00;99.90
23160;DHT22;11748;50.844;4.396;2022-09-14T14:06:32;18.90;99.90
23160;DHT22;11748;50.844;4.396;2022-09-14T14:11:29;18.80;99.90
23160;DHT22;11748;50.844;4.396;2022-09-14T14:13:55;18.80;99.90
23160;DHT22;11748;50.844;4.396;2022-09-14T14:16:33;18.80;99.90
23160;DHT22;11748;50.844;4.396;2022-09-14T14:18:59;18.70;99.90
23160;DHT22;11748;50.844;4.396;2022-09-14T14:21:30;18.60;99.90
23160;DHT22;11748;50.844;4.396;2022-09-14T14:24:16;18.60;99.90
23160;DHT22;11748;50.844;4.396;2022-09-14T14:26:49;18.60;99.90
23160;DHT22;11748;50.844;4.396;2022-09-14T14:29:15;18.70;99.90
23160;DHT22;11748;50.844;4.396;2022-09-14T14:31:42;18.70;99.90
23160;DHT22;11748;50.844;4.396;2022-09-14T14:34:20;18.70;99.90
23160;DHT22;11748;50.844;4.396;2022-09-14T14:36:46;18.70;99.90
23160;DHT22;11748;50.844;4.396;2022-09-14T14:39:15;18.50;99.90
23160;DHT22;11748;50.844;4.396;2022-09-14T14:41:42;18.50;99.90
23160;DHT22;11748;50.844;4.396;2022-09-14T14:44:14;18.10;99.90
23160;DHT22;11748;50.844;4.396;2022-09-14T14:46:43;18.20;99.90
23160;DHT22;11748;50.844;4.396;2022-09-14T14:49:11;18.10;99.90
23160;DHT22;11748;50.844;4.396;2022-09-14T14:55:16;18.00;99.90
23160;DHT22;11748;50.844;4.396;2022-09-14T14:57:50;17.90;99.90
23160;DHT22;11748;50.844;4.396;2022-09-14T15:00:25;18.00;99.90
23160;DHT22;11748;50.844;4.396;2022-09-14T15:03:06;17.90;99.90
23160;DHT22;11748;50.844;4.396;2022-09-14T15:05:39;18.00;99.90
23160;DHT22;11748;50.844;4.396;2022-09-14T15:08:12;18.00;99.90
23160;DHT22;11748;50.844;4.396;2022-09-14T15:10:47;17.90;99.90
23160;DHT22;11748;50.844;4.396;2022-09-14T15:13:14;17.70;99.90
23160;DHT22;11748;50.844;4.396;2022-09-14T15:15:41;17.70;99.90
23160;DHT22;11748;50.844;4.396;2022-09-14T15:18:10;17.80;99.90
23160;DHT22;11748;50.844;4.396;2022-09-14T15:20:37;17.80;99.90
23160;DHT22;11748;50.844;4.396;2022-09-14T15:23:05;17.60;99.90
23160;DHT22;11748;50.844;4.396;2022-09-14T15:25:37;17.80;99.90
23160;DHT22;11748;50.844;4.396;2022-09-14T15:28:05;17.70;99.90
23160;DHT22;11748;50.844;4.396;2022-09-14T15:30:34;17.60;99.90
23160;DHT22;11748;50.844;4.396;2022-09-14T15:33:03;17.80;99.90
23160;DHT22;11748;50.844;4.396;2022-09-14T15:35:31;17.90;99.90
23160;DHT22;11748;50.844;4.396;2022-09-14T15:37:58;17.90;99.90
23160;DHT22;11748;50.844;4.396;2022-09-14T15:40:38;17.90;99.90
23160;DHT22;11748;50.844;4.396;2022-09-14T15:43:06;17.90;99.90
23160;DHT22;11748;50.844;4.396;2022-09-14T15:45:35;17.90;99.90
23160;DHT22;11748;50.844;4.396;2022-09-14T15:48:03;17.90;99.90
23160;DHT22;11748;50.844;4.396;2022-09-14T15:50:30;17.90;99.90
23160;DHT22;11748;50.844;4.396;2022-09-14T15:52:59;17.90;99.90
23160;DHT22;11748;50.844;4.396;2022-09-14T15:55:28;17.90;99.90
23160;DHT22;11748;50.844;4.396;2022-09-14T15:57:55;17.90;99.90
23160;DHT22;11748;50.844;4.396;2022-09-14T16:00:25;17.80;99.90
23160;DHT22;11748;50.844;4.396;2022-09-14T16:02:50;17.70;99.90
23160;DHT22;11748;50.844;4.396;2022-09-14T16:05:17;17.70;99.90
23160;DHT22;11748;50.844;4.396;2022-09-14T16:07:53;17.80;99.90
23160;DHT22;11748;50.844;4.396;2022-09-14T16:10:29;17.80;99.90
23160;DHT22;11748;50.844;4.396;2022-09-14T16:12:56;17.80;99.90
23160;DHT22;11748;50.844;4.396;2022-09-14T16:15:27;17.80;99.90
23160;DHT22;11748;50.844;4.396;2022-09-14T16:17:57;17.80;99.90
23160;DHT22;11748;50.844;4.396;2022-09-14T16:20:24;17.80;99.90
23160;DHT22;11748;50.844;4.396;2022-09-14T16:23:11;17.80;99.90
23160;DHT22;11748;50.844;4.396;2022-09-14T16:25:37;17.70;99.90
23160;DHT22;11748;50.844;4.396;2022-09-14T16:28:09;17.70;99.90
23160;DHT22;11748;50.844;4.396;2022-09-14T16:30:38;17.70;99.90
23160;DHT22;11748;50.844;4.396;2022-09-14T16:33:07;17.60;99.90
23160;DHT22;11748;50.844;4.396;2022-09-14T16:35:35;17.60;99.90
23160;DHT22;11748;50.844;4.396;2022-09-14T16:38:02;17.60;99.90
23160;DHT22;11748;50.844;4.396;2022-09-14T16:40:32;17.70;99.90
23160;DHT22;11748;50.844;4.396;2022-09-14T16:43:01;17.60;99.90
23160;DHT22;11748;50.844;4.396;2022-09-14T16:45:33;17.60;99.90
23160;DHT22;11748;50.844;4.396;2022-09-14T16:48:01;17.60;99.90
23160;DHT22;11748;50.844;4.396;2022-09-14T16:50:28;17.60;99.90
23160;DHT22;11748;50.844;4.396;2022-09-14T16:52:55;17.70;99.90
23160;DHT22;11748;50.844;4.396;2022-09-14T16:55:27;17.50;99.90
23160;DHT22;11748;50.844;4.396;2022-09-14T16:57:52;17.20;99.90
23160;DHT22;11748;50.844;4.396;2022-09-14T17:00:20;17.00;99.90
23160;DHT22;11748;50.844;4.396;2022-09-14T17:02:50;17.10;99.90
23160;DHT22;11748;50.844;4.396;2022-09-14T17:05:18;17.10;99.90
23160;DHT22;11748;50.844;4.396;2022-09-14T17:07:46;17.20;99.90
23160;DHT22;11748;50.844;4.396;2022-09-14T17:10:34;17.20;99.90
23160;DHT22;11748;50.844;4.396;2022-09-14T17:13:08;17.20;99.90
23160;DHT22;11748;50.844;4.396;2022-09-14T17:15:35;17.10;99.90
23160;DHT22;11748;50.844;4.396;2022-09-14T17:18:04;17.10;99.90
23160;DHT22;11748;50.844;4.396;2022-09-14T17:20:31;17.10;99.90
23160;DHT22;11748;50.844;4.396;2022-09-14T17:23:03;17.20;99.90
23160;DHT22;11748;50.844;4.396;2022-09-14T17:25:32;17.20;99.90
23160;DHT22;11748;50.844;4.396;2022-09-14T17:27:58;17.10;99.90
23160;DHT22;11748;50.844;4.396;2022-09-14T17:30:27;17.20;99.90
23160;DHT22;11748;50.844;4.396;2022-09-14T17:32:53;17.20;99.90
23160;DHT22;11748;50.844;4.396;2022-09-14T17:35:20;17.20;99.90
23160;DHT22;11748;50.844;4.396;2022-09-14T17:37:55;17.20;99.90
23160;DHT22;11748;50.844;4.396;2022-09-14T17:43:00;17.10;99.90
23160;DHT22;11748;50.844;4.396;2022-09-14T17:45:29;17.00;99.90
23160;DHT22;11748;50.844;4.396;2022-09-14T17:47:55;17.00;99.90
23160;DHT22;11748;50.844;4.396;2022-09-14T17:50:24;17.00;99.90
23160;DHT22;11748;50.844;4.396;2022-09-14T17:53:00;16.90;99.90
23160;DHT22;11748;50.844;4.396;2022-09-14T17:55:30;16.90;99.90
23160;DHT22;11748;50.844;4.396;2022-09-14T17:57:57;17.00;99.90
23160;DHT22;11748;50.844;4.396;2022-09-14T18:00:29;17.00;99.90
23160;DHT22;11748;50.844;4.396;2022-09-14T18:02:58;16.90;99.90
23160;DHT22;11748;50.844;4.396;2022-09-14T18:05:24;16.70;99.90
23160;DHT22;11748;50.844;4.396;2022-09-14T18:07:51;16.70;99.90
23160;DHT22;11748;50.844;4.396;2022-09-14T18:10:17;16.80;99.90
23160;DHT22;11748;50.844;4.396;2022-09-14T18:12:44;16.90;99.90
23160;DHT22;11748;50.844;4.396;2022-09-14T18:15:12;17.00;99.90
23160;DHT22;11748;50.844;4.396;2022-09-14T18:17:39;17.00;99.90
23160;DHT22;11748;50.844;4.396;2022-09-14T18:20:06;17.00;99.90
23160;DHT22;11748;50.844;4.396;2022-09-14T18:22:44;16.90;99.90
23160;DHT22;11748;50.844;4.396;2022-09-14T18:25:13;16.70;99.90
23160;DHT22;11748;50.844;4.396;2022-09-14T18:27:38;16.50;99.90
23160;DHT22;11748;50.844;4.396;2022-09-14T18:30:08;16.40;99.90
23160;DHT22;11748;50.844;4.396;2022-09-14T18:32:33;16.30;99.90
23160;DHT22;11748;50.844;4.396;2022-09-14T18:35:02;16.30;99.90
23160;DHT22;11748;50.844;4.396;2022-09-14T18:37:37;16.40;99.90
23160;DHT22;11748;50.844;4.396;2022-09-14T18:40:03;16.60;99.90
23160;DHT22;11748;50.844;4.396;2022-09-14T18:42:28;16.70;99.90
23160;DHT22;11748;50.844;4.396;2022-09-14T18:44:54;16.80;99.90
23160;DHT22;11748;50.844;4.396;2022-09-14T18:47:24;16.90;99.90
23160;DHT22;11748;50.844;4.396;2022-09-14T18:49:52;16.90;99.90
23160;DHT22;11748;50.844;4.396;2022-09-14T18:52:46;16.90;99.90